Time;durP1;ratioP1;P1;durP2;ratioP2;P2;SDS_P1;SDS_P2;PMS_P1;PMS_P2;Temp;Humidity;BMP_temperature;BMP_pressure;BME280_temperature;BME280_humidity;BME280_pressure;Samples;Min_cycle;Max_cycle;Signal;HPM_P1;HPM_P2
2022/06/14 00:02:05;;;;;;;11.85;2.80;;;13.00;99.90;;;;;;5131770;27;20062;-84
2022/06/14 00:04:51;;;;;;;11.02;2.58;;;13.00;99.90;;;;;;5114299;27;20417;-81
2022/06/14 00:07:37;;;;;;;8.50;2.35;;;12.90;99.90;;;;;;5113738;27;20089;-83
2022/06/14 00:10:23;;;;;;;13.57;2.92;;;12.90;99.90;;;;;;5131662;27;20375;-82
2022/06/14 00:13:10;;;;;;;13.15;2.42;;;12.90;99.90;;;;;;5110416;28;20062;-84
2022/06/14 00:15:57;;;;;;;12.00;2.22;;;12.80;99.90;;;;;;5096449;28;20047;-81
2022/06/14 00:18:43;;;;;;;8.02;2.60;;;12.80;99.90;;;;;;5112518;28;20048;-81
2022/06/14 00:21:29;;;;;;;10.68;2.50;;;12.70;99.90;;;;;;5111417;28;20044;-83
2022/06/14 00:24:15;;;;;;;9.70;1.98;;;12.70;99.90;;;;;;5109760;28;20052;-84
2022/06/14 00:27:01;;;;;;;9.70;2.22;;;12.70;99.90;;;;;;5111167;28;20062;-84
2022/06/14 00:29:48;;;;;;;12.75;2.42;;;12.70;99.90;;;;;;5110042;28;20553;-84
2022/06/14 00:32:34;;;;;;;14.27;4.60;;;12.70;99.90;;;;;;5111855;28;20052;-86
2022/06/14 00:35:20;;;;;;;13.05;2.47;;;12.60;99.90;;;;;;5109079;28;20121;-84
2022/06/14 00:38:06;;;;;;;11.38;3.22;;;12.60;99.90;;;;;;5110904;28;20047;-83
2022/06/14 00:40:55;;;;;;;10.05;2.33;;;12.60;99.90;;;;;;5112234;28;20039;-83
2022/06/14 00:43:41;;;;;;;12.48;2.10;;;12.60;99.90;;;;;;5111490;28;20058;-80
2022/06/14 00:46:37;;;;;;;14.10;2.10;;;12.60;99.90;;;;;;5109920;28;20090;-85
2022/06/14 00:49:29;;;;;;;10.55;2.45;;;12.60;99.90;;;;;;5110290;28;20575;-80
2022/06/14 00:52:23;;;;;;;13.32;3.25;;;12.50;99.90;;;;;;5110790;28;20549;-86
2022/06/14 00:55:20;;;;;;;14.35;2.72;;;12.50;99.90;;;;;;5108751;28;20043;-84
2022/06/14 00:58:18;;;;;;;12.02;2.92;;;12.50;99.90;;;;;;5109151;28;20108;-82
2022/06/14 01:01:12;;;;;;;10.38;1.83;;;12.60;99.90;;;;;;5111675;28;20050;-85
2022/06/14 01:04:06;;;;;;;10.55;2.50;;;12.60;99.90;;;;;;5110815;28;20043;-84
2022/06/14 01:07:01;;;;;;;13.57;2.90;;;12.60;99.90;;;;;;5111177;28;20403;-83
2022/06/14 01:10:08;;;;;;;13.75;2.45;;;12.60;99.90;;;;;;5110818;28;20050;-85
2022/06/14 01:13:00;;;;;;;8.77;1.83;;;12.60;99.90;;;;;;5114250;27;20049;-82
2022/06/14 01:15:50;;;;;;;11.00;1.83;;;12.70;99.90;;;;;;5113604;27;20138;-85
2022/06/14 01:18:38;;;;;;;13.20;2.10;;;12.70;99.90;;;;;;5112492;27;20153;-82
2022/06/14 01:21:25;;;;;;;16.50;2.40;;;12.70;99.90;;;;;;5090896;27;20192;-80
2022/06/14 01:24:12;;;;;;;12.48;2.22;;;12.80;99.90;;;;;;5115510;27;20054;-81
2022/06/14 01:27:00;;;;;;;11.00;2.20;;;12.80;99.90;;;;;;5116851;28;20093;-83
2022/06/14 01:29:54;;;;;;;8.73;2.00;;;12.70;99.90;;;;;;5116505;28;20160;-82
2022/06/14 01:33:16;;;;;;;10.10;1.95;;;12.70;99.90;;;;;;5131715;28;20050;-81
2022/06/14 01:36:09;;;;;;;13.65;2.35;;;12.70;99.90;;;;;;5112047;28;20055;-83
2022/06/14 01:38:57;;;;;;;10.30;2.17;;;12.60;99.90;;;;;;5111877;28;20051;-82
2022/06/14 01:41:50;;;;;;;15.43;2.85;;;12.50;99.90;;;;;;5131981;27;20043;-82
2022/06/14 01:45:06;;;;;;;10.75;2.30;;;12.50;99.90;;;;;;5131215;28;20047;-85
2022/06/14 01:48:12;;;;;;;13.63;3.20;;;12.50;99.90;;;;;;5133580;28;20047;-84
2022/06/14 01:54:38;;;;;;;12.50;2.30;;;12.30;99.90;;;;;;5121893;28;20066;-82
2022/06/14 01:57:49;;;;;;;6.88;2.17;;;12.20;99.90;;;;;;5111428;28;20047;-82
2022/06/14 02:01:04;;;;;;;8.40;1.80;;;12.20;99.90;;;;;;5131779;28;20104;-85
2022/06/14 02:07:21;;;;;;;8.95;2.83;;;12.10;99.90;;;;;;5115152;27;20047;-85
2022/06/14 02:10:37;;;;;;;10.00;3.03;;;12.10;99.90;;;;;;5137412;27;20047;-81
2022/06/14 02:13:32;;;;;;;15.68;4.88;;;12.00;99.90;;;;;;5133905;27;20058;-82
2022/06/14 02:16:21;;;;;;;21.58;4.10;;;12.00;99.90;;;;;;5134886;27;20054;-81
2022/06/14 02:19:13;;;;;;;12.23;2.10;;;12.00;99.90;;;;;;5134703;27;20051;-85
2022/06/14 02:22:18;;;;;;;8.95;2.25;;;12.00;99.90;;;;;;5120566;27;20071;-84
2022/06/14 02:25:19;;;;;;;13.47;3.23;;;12.00;99.90;;;;;;5104699;27;20497;-84
2022/06/14 02:28:25;;;;;;;12.77;3.25;;;11.90;99.90;;;;;;5137607;27;20044;-83
2022/06/14 02:31:37;;;;;;;12.23;2.58;;;11.90;99.90;;;;;;5135391;27;20078;-84
2022/06/14 02:34:40;;;;;;;8.50;2.22;;;11.90;99.90;;;;;;5115671;27;20172;-83
2022/06/14 02:37:44;;;;;;;14.32;2.88;;;11.90;99.90;;;;;;5115674;27;20131;-81
2022/06/14 02:40:41;;;;;;;10.13;2.38;;;11.90;99.90;;;;;;5115950;27;20188;-83
2022/06/14 02:43:45;;;;;;;10.70;2.15;;;11.90;99.90;;;;;;5134963;27;20051;-81
2022/06/14 02:46:57;;;;;;;14.70;3.85;;;11.90;99.90;;;;;;5135855;27;20047;-82
2022/06/14 02:49:55;;;;;;;7.57;2.30;;;11.90;99.90;;;;;;5116732;27;20498;-82
2022/06/14 02:52:45;;;;;;;10.88;2.10;;;11.90;99.90;;;;;;5102509;27;20134;-82
2022/06/14 02:55:52;;;;;;;15.25;3.80;;;11.90;99.90;;;;;;5134361;27;20039;-84
2022/06/14 02:59:15;;;;;;;12.27;2.15;;;11.90;99.90;;;;;;5133449;27;20047;-81
2022/06/14 03:02:11;;;;;;;10.25;2.70;;;11.90;99.90;;;;;;5133700;27;20507;-79
2022/06/14 03:05:13;;;;;;;10.80;2.55;;;11.90;99.90;;;;;;5114353;27;20119;-81
2022/06/14 03:08:05;;;;;;;16.48;3.03;;;11.90;99.90;;;;;;5116507;27;20047;-84
2022/06/14 03:11:22;;;;;;;9.20;2.95;;;11.90;99.90;;;;;;5133423;27;20085;-81
2022/06/14 03:14:35;;;;;;;9.43;2.10;;;11.90;99.90;;;;;;5114281;27;20498;-81
2022/06/14 03:17:39;;;;;;;11.20;2.40;;;11.90;99.90;;;;;;5134245;27;20039;-80
2022/06/14 03:20:44;;;;;;;9.40;3.30;;;11.90;99.90;;;;;;5116484;27;20050;-85
2022/06/14 03:23:49;;;;;;;8.52;2.70;;;11.90;99.90;;;;;;5119715;27;20646;-80
2022/06/14 03:26:55;;;;;;;16.15;2.78;;;11.90;99.90;;;;;;5133814;27;20454;-81
2022/06/14 03:29:47;;;;;;;13.25;2.42;;;11.90;99.90;;;;;;5118176;27;20051;-82
2022/06/14 03:32:39;;;;;;;13.85;3.42;;;11.90;99.90;;;;;;5115479;27;20047;-81
2022/06/14 03:35:41;;;;;;;11.88;2.63;;;11.80;99.90;;;;;;5133935;27;20086;-82
2022/06/14 03:38:50;;;;;;;12.63;2.92;;;11.80;99.90;;;;;;5133123;27;20149;-83
2022/06/14 03:41:46;;;;;;;7.55;2.10;;;11.90;99.90;;;;;;5113737;27;20129;-82
2022/06/14 03:44:32;;;;;;;;;;;11.80;99.90;;;;;;5114551;27;20083;-82
2022/06/14 03:47:22;;;;;;;10.07;2.22;;;11.80;99.90;;;;;;5114592;27;20428;-85
2022/06/14 03:50:15;;;;;;;10.90;2.30;;;11.80;99.90;;;;;;5134845;27;20047;-82
2022/06/14 03:53:05;;;;;;;16.08;2.25;;;11.80;99.90;;;;;;5114637;27;20043;-81
2022/06/14 03:56:20;;;;;;;9.93;2.25;;;11.80;99.90;;;;;;5113780;27;20051;-81
2022/06/14 03:59:21;;;;;;;12.90;3.03;;;11.90;99.90;;;;;;5132324;27;20149;-82
2022/06/14 04:02:10;;;;;;;9.45;2.40;;;11.90;99.90;;;;;;5114453;27;20055;-85
2022/06/14 04:04:58;;;;;;;7.68;2.42;;;11.90;99.90;;;;;;5104186;27;20046;-85
2022/06/14 04:07:59;;;;;;;12.35;2.97;;;12.00;99.90;;;;;;5133123;27;20043;-81
2022/06/14 04:11:02;;;;;;;8.73;2.30;;;12.00;99.90;;;;;;5132349;27;20372;-82
2022/06/14 04:13:57;;;;;;;15.18;3.08;;;12.10;99.90;;;;;;5113618;27;20054;-83
2022/06/14 04:17:20;;;;;;;10.65;3.10;;;12.10;99.90;;;;;;5113381;27;20369;-82
2022/06/14 04:20:19;;;;;;;10.60;3.50;;;12.10;99.90;;;;;;5120040;27;20063;-83
2022/06/14 04:23:15;;;;;;;8.70;4.07;;;12.10;99.90;;;;;;5133731;27;20039;-82
2022/06/14 04:26:10;;;;;;;12.13;4.45;;;12.10;99.90;;;;;;5132082;27;20513;-83
2022/06/14 04:29:04;;;;;;;10.38;2.75;;;12.10;99.90;;;;;;5131696;27;20062;-82
2022/06/14 04:32:14;;;;;;;6.80;2.55;;;12.20;99.90;;;;;;5114174;27;20082;-84
2022/06/14 04:35:07;;;;;;;9.25;2.58;;;12.20;99.90;;;;;;5113252;27;20047;-82
2022/06/14 04:37:55;;;;;;;8.90;2.65;;;12.20;99.90;;;;;;5134099;27;20043;-84
2022/06/14 04:40:48;;;;;;;10.98;3.33;;;12.20;99.90;;;;;;5131259;27;20054;-85
2022/06/14 04:43:43;;;;;;;9.38;2.80;;;12.30;99.90;;;;;;5132229;27;20055;-85
2022/06/14 04:46:47;;;;;;;12.07;2.80;;;12.30;99.90;;;;;;5133452;27;20522;-82
2022/06/14 04:49:53;;;;;;;11.10;2.67;;;12.40;99.90;;;;;;5131020;27;20845;-80
2022/06/14 04:52:50;;;;;;;11.82;2.95;;;12.40;99.90;;;;;;5130913;27;20206;-81
2022/06/14 04:55:43;;;;;;;11.43;2.95;;;12.50;99.90;;;;;;5132089;27;20051;-83
2022/06/14 04:58:57;;;;;;;19.23;3.35;;;12.50;99.90;;;;;;5113108;27;20069;-85
2022/06/14 05:01:59;;;;;;;10.88;2.90;;;12.50;99.90;;;;;;5113294;27;20062;-80
2022/06/14 05:04:51;;;;;;;13.65;3.47;;;12.70;99.90;;;;;;5116979;27;20092;-83
2022/06/14 05:07:49;;;;;;;15.30;3.88;;;12.80;99.90;;;;;;5116565;27;20134;-83
2022/06/14 05:10:41;;;;;;;10.93;3.03;;;12.90;99.90;;;;;;5133502;27;20047;-82
2022/06/14 05:13:58;;;;;;;10.98;3.05;;;13.00;99.90;;;;;;5118710;27;20051;-84
2022/06/14 05:16:53;;;;;;;10.60;2.88;;;13.00;99.90;;;;;;5132599;27;20046;-81
2022/06/14 05:20:13;;;;;;;9.25;3.08;;;13.00;99.90;;;;;;5100263;27;20159;-81
2022/06/14 05:23:16;;;;;;;6.50;2.35;;;13.10;99.90;;;;;;5107468;27;20055;-82
2022/06/14 05:26:21;;;;;;;14.38;2.80;;;13.20;99.90;;;;;;5100465;28;20134;-80
2022/06/14 05:29:13;;;;;;;8.40;2.75;;;13.40;99.90;;;;;;5133783;27;20035;-81
2022/06/14 05:32:13;;;;;;;8.65;2.92;;;13.50;99.90;;;;;;5133599;28;20047;-78
2022/06/14 05:35:20;;;;;;;9.27;2.70;;;13.50;99.90;;;;;;5132532;28;20058;-81
2022/06/14 05:38:32;;;;;;;9.02;2.70;;;13.60;99.90;;;;;;5135468;28;20465;-83
2022/06/14 05:41:42;;;;;;;9.70;2.45;;;13.60;99.90;;;;;;5134196;27;20043;-84
2022/06/14 05:44:57;;;;;;;12.60;3.38;;;13.60;99.90;;;;;;5117654;27;20362;-83
2022/06/14 05:48:08;;;;;;;8.90;3.30;;;13.60;99.90;;;;;;5135924;27;20085;-84
2022/06/14 05:50:58;;;;;;;11.60;2.80;;;13.70;99.90;;;;;;5116257;27;20055;-82
2022/06/14 05:53:49;;;;;;;11.63;2.63;;;13.70;99.90;;;;;;5135174;27;20688;-81
2022/06/14 05:56:39;;;;;;;7.35;2.08;;;13.80;99.90;;;;;;5117343;27;20126;-83
2022/06/14 05:59:34;;;;;;;6.25;2.05;;;13.90;99.90;;;;;;5119686;27;20051;-80
2022/06/14 06:02:28;;;;;;;9.35;2.03;;;14.10;99.90;;;;;;5135483;27;20394;-82
2022/06/14 06:05:21;;;;;;;10.77;2.58;;;14.20;99.90;;;;;;5103699;27;20410;-83
2022/06/14 06:08:10;;;;;;;12.75;3.05;;;14.30;99.90;;;;;;5134595;27;20051;-81
2022/06/14 06:11:04;;;;;;;7.40;2.67;;;14.40;99.90;;;;;;5116352;27;20043;-81
2022/06/14 06:14:01;;;;;;;9.07;2.72;;;14.40;99.90;;;;;;5119246;27;20463;-83
2022/06/14 06:19:57;;;;;;;9.50;2.35;;;14.60;99.90;;;;;;5116864;27;20498;-83
2022/06/14 06:22:49;;;;;;;6.35;1.88;;;14.80;99.90;;;;;;5134268;27;20047;-81
2022/06/14 06:25:41;;;;;;;6.18;2.00;;;15.00;99.90;;;;;;5135039;27;20392;-80
2022/06/14 06:28:32;;;;;;;10.05;2.08;;;15.10;99.90;;;;;;5133913;27;20055;-83
2022/06/14 06:31:23;;;;;;;9.40;2.35;;;15.20;99.90;;;;;;5133707;27;20050;-82
2022/06/14 06:34:13;;;;;;;9.48;1.90;;;15.30;99.90;;;;;;5100976;27;20053;-84
2022/06/14 06:37:13;;;;;;;9.50;1.98;;;15.40;99.90;;;;;;5115713;27;20058;-83
2022/06/14 06:40:12;;;;;;;13.10;2.28;;;15.40;99.90;;;;;;5132977;27;20047;-84
2022/06/14 06:43:05;;;;;;;8.95;1.85;;;15.50;99.90;;;;;;5133236;27;20143;-85
2022/06/14 06:45:52;;;;;;;5.95;1.90;;;15.70;99.90;;;;;;5102379;27;20095;-85
2022/06/14 06:48:42;;;;;;;10.20;1.88;;;15.90;99.90;;;;;;5102261;27;20080;-84
2022/06/14 06:51:37;;;;;;;9.05;2.03;;;16.30;99.90;;;;;;5115697;27;20047;-82
2022/06/14 06:54:33;;;;;;;10.02;1.73;;;16.50;99.90;;;;;;5114124;27;20106;-83
2022/06/14 06:57:23;;;;;;;7.90;1.83;;;16.70;99.90;;;;;;5133185;27;20142;-82
2022/06/14 07:00:14;;;;;;;7.25;1.90;;;16.90;99.90;;;;;;5134104;27;20478;-81
2022/06/14 07:03:41;;;;;;;12.23;2.80;;;17.10;99.90;;;;;;5135261;27;20122;-79
2022/06/14 07:06:29;;;;;;;6.90;2.00;;;17.20;99.90;;;;;;5098480;27;20485;-83
2022/06/14 07:09:41;;;;;;;9.98;1.73;;;17.50;99.90;;;;;;5116994;27;20550;-84
2022/06/14 07:12:37;;;;;;;8.77;2.00;;;17.70;99.90;;;;;;5134761;27;20161;-82
2022/06/14 07:15:38;;;;;;;7.05;2.03;;;17.70;99.90;;;;;;5118655;27;20092;-82
2022/06/14 07:18:53;;;;;;;4.80;1.40;;;17.60;99.90;;;;;;5114833;27;20051;-80
2022/06/14 07:22:05;;;;;;;8.90;3.78;;;17.30;99.90;;;;;;5134195;27;20053;-82
2022/06/14 07:25:01;;;;;;;6.93;1.92;;;17.20;99.90;;;;;;5115683;27;20054;-83
2022/06/14 07:28:10;;;;;;;5.88;1.08;;;17.10;99.90;;;;;;5115013;27;20196;-83
2022/06/14 07:31:00;;;;;;;5.45;1.38;;;17.30;99.90;;;;;;5132882;27;20039;-85
2022/06/14 07:33:46;;;;;;;7.20;1.33;;;17.40;99.90;;;;;;5133132;27;20379;-84
2022/06/14 07:36:32;;;;;;;5.85;1.08;;;17.50;99.90;;;;;;5132444;27;20047;-83
2022/06/14 07:39:21;;;;;;;4.07;1.05;;;17.70;99.90;;;;;;5132518;27;20142;-81
2022/06/14 07:42:07;;;;;;;2.80;1.35;;;17.70;99.90;;;;;;5117958;27;20082;-82
2022/06/14 07:45:05;;;;;;;4.90;1.25;;;17.90;99.90;;;;;;5133512;27;20047;-82
2022/06/14 07:47:51;;;;;;;3.72;1.27;;;18.10;99.90;;;;;;5132753;27;20108;-81
2022/06/14 07:50:49;;;;;;;5.18;1.00;;;18.00;99.90;;;;;;5133511;27;20051;-81
2022/06/14 07:53:45;;;;;;;3.80;1.20;;;18.10;99.90;;;;;;5101106;27;20150;-80
2022/06/14 07:56:42;;;;;;;4.78;1.40;;;18.20;99.90;;;;;;5113662;27;20047;-79
2022/06/14 07:59:42;;;;;;;3.60;1.10;;;18.50;99.90;;;;;;5118219;27;20165;-81
2022/06/14 08:02:36;;;;;;;3.53;1.23;;;19.00;99.90;;;;;;5132793;27;20046;-82
2022/06/14 08:05:30;;;;;;;3.85;1.23;;;19.20;99.90;;;;;;5133144;27;20091;-81
2022/06/14 08:08:25;;;;;;;3.78;1.25;;;19.30;99.90;;;;;;5100329;27;20090;-81
2022/06/14 08:11:44;;;;;;;7.22;1.25;;;19.50;99.70;;;;;;5114032;27;20054;-82
2022/06/14 08:15:01;;;;;;;4.55;1.02;;;19.70;99.30;;;;;;5111473;27;20159;-80
2022/06/14 08:17:53;;;;;;;3.67;1.00;;;19.70;98.50;;;;;;5114339;27;20506;-81
2022/06/14 08:20:46;;;;;;;5.10;1.02;;;19.90;98.90;;;;;;5132229;27;20047;-80
2022/06/14 08:23:35;;;;;;;4.00;1.05;;;19.90;99.00;;;;;;5132170;27;20054;-80
2022/06/14 08:26:35;;;;;;;4.38;1.20;;;19.90;98.30;;;;;;5118146;27;20130;-81
2022/06/14 08:29:34;;;;;;;3.70;1.45;;;19.90;98.40;;;;;;5131898;27;20051;-80
2022/06/14 08:32:43;;;;;;;4.55;1.60;;;19.80;98.20;;;;;;5131747;27;20123;-81
2022/06/14 08:36:14;;;;;;;4.45;1.10;;;20.20;98.30;;;;;;5113855;27;20498;-81
2022/06/14 08:39:10;;;;;;;4.28;1.10;;;20.20;96.00;;;;;;5131521;27;20134;-82
2022/06/14 08:42:05;;;;;;;8.65;1.95;;;20.40;97.30;;;;;;5101761;27;20047;-82
2022/06/14 08:45:08;;;;;;;6.70;1.23;;;20.40;97.80;;;;;;5132080;27;20131;-83
2022/06/14 08:48:19;;;;;;;3.75;0.98;;;20.70;97.10;;;;;;5112180;27;20050;-81
2022/06/14 08:51:31;;;;;;;4.00;1.10;;;21.20;96.70;;;;;;5099506;27;20057;-80
2022/06/14 08:55:01;;;;;;;6.45;1.27;;;21.60;96.60;;;;;;5131435;27;20676;-80
2022/06/14 08:58:08;;;;;;;3.85;1.02;;;21.70;96.00;;;;;;5090082;27;20054;-80
2022/06/14 09:01:09;;;;;;;4.78;1.10;;;21.60;96.50;;;;;;5132134;27;20063;-81
2022/06/14 09:04:10;;;;;;;5.55;1.42;;;21.10;95.80;;;;;;5113240;27;20099;-80
2022/06/14 09:06:59;;;;;;;4.35;1.05;;;20.90;96.40;;;;;;5113003;28;20051;-79
2022/06/14 09:10:08;;;;;;;3.53;1.27;;;20.60;97.60;;;;;;5114882;27;20047;-79
2022/06/14 09:13:14;;;;;;;4.57;1.05;;;20.30;96.70;;;;;;5116509;27;20096;-79
2022/06/14 09:16:28;;;;;;;6.35;1.60;;;20.10;98.30;;;;;;5111925;28;20039;-79
2022/06/14 09:19:17;;;;;;;6.38;1.40;;;20.00;99.10;;;;;;5131105;27;20489;-82
2022/06/14 09:22:10;;;;;;;3.92;1.20;;;19.90;98.90;;;;;;5132077;27;20126;-79
2022/06/14 09:25:27;;;;;;;6.13;1.67;;;19.90;98.70;;;;;;5112882;27;20463;-79
2022/06/14 09:28:51;;;;;;;2.88;1.20;;;19.80;98.50;;;;;;5087170;27;20585;-81
2022/06/14 09:31:43;;;;;;;3.58;1.10;;;19.60;99.20;;;;;;5087917;28;20047;-80
2022/06/14 09:35:14;;;;;;;5.65;1.92;;;19.70;99.70;;;;;;5131617;28;20059;-81
2022/06/14 09:38:20;;;;;;;5.68;1.40;;;19.70;99.00;;;;;;5106213;28;20411;-83
2022/06/14 09:41:37;;;;;;;5.43;1.30;;;19.70;99.40;;;;;;5115294;28;20053;-80
2022/06/14 09:44:45;;;;;;;4.70;1.40;;;19.70;99.90;;;;;;5131149;28;20502;-81
2022/06/14 09:47:55;;;;;;;5.85;1.48;;;19.70;99.70;;;;;;5130793;28;20096;-80
2022/06/14 09:51:10;;;;;;;4.43;1.35;;;19.70;99.70;;;;;;5131054;28;20054;-82
2022/06/14 09:54:24;;;;;;;3.67;1.07;;;19.70;98.90;;;;;;5112880;28;20055;-81
2022/06/14 09:57:24;;;;;;;7.05;1.20;;;19.90;99.00;;;;;;5115702;28;20061;-82
2022/06/14 10:00:10;;;;;;;8.85;2.63;;;20.10;98.50;;;;;;5111916;28;20047;-80
2022/06/14 10:03:23;;;;;;;6.35;1.17;;;20.10;97.80;;;;;;5114995;28;20051;-82
2022/06/14 10:06:30;;;;;;;3.85;1.00;;;20.00;96.90;;;;;;5098317;28;20058;-80
2022/06/14 10:09:51;;;;;;;3.40;0.95;;;20.20;96.40;;;;;;5111732;27;20040;-82
2022/06/14 10:12:46;;;;;;;7.05;1.67;;;20.30;96.00;;;;;;5130027;28;20051;-81
2022/06/14 10:15:54;;;;;;;5.50;1.17;;;20.40;96.50;;;;;;5130358;27;20097;-81
2022/06/14 10:18:40;;;;;;;5.32;1.48;;;20.30;96.90;;;;;;5111357;28;20078;-82
2022/06/14 10:21:55;;;;;;;4.18;1.60;;;20.30;96.80;;;;;;5098079;28;20147;-81
2022/06/14 10:24:58;;;;;;;4.22;0.90;;;20.70;96.80;;;;;;5111285;28;20103;-80
2022/06/14 10:28:13;;;;;;;3.42;1.00;;;20.50;96.00;;;;;;5132412;27;20130;-81
2022/06/14 10:31:33;;;;;;;4.68;0.88;;;20.60;95.00;;;;;;5134643;27;20043;-82
2022/06/14 10:34:22;;;;;;;3.70;0.93;;;20.40;95.60;;;;;;5119263;27;20146;-79
2022/06/14 10:37:16;;;;;;;3.78;1.00;;;20.30;95.40;;;;;;5115710;27;20051;-81
2022/06/14 10:40:37;;;;;;;4.03;0.93;;;20.30;94.90;;;;;;5133917;27;20046;-79
2022/06/14 10:43:27;;;;;;;5.35;1.05;;;20.40;93.70;;;;;;5134217;27;20051;-80
2022/06/14 10:46:19;;;;;;;5.90;1.13;;;20.30;94.60;;;;;;5115124;27;20134;-80
2022/06/14 10:49:40;;;;;;;3.40;0.90;;;20.50;94.70;;;;;;5116101;27;20050;-80
2022/06/14 10:53:03;;;;;;;7.25;1.58;;;20.40;93.10;;;;;;5115565;27;20439;-80
2022/06/14 10:55:53;;;;;;;6.55;1.42;;;20.30;94.20;;;;;;5116385;27;20039;-81
2022/06/14 10:58:58;;;;;;;5.88;1.35;;;20.50;94.40;;;;;;5114925;27;20134;-82
2022/06/14 11:02:09;;;;;;;5.72;1.20;;;20.60;94.30;;;;;;5133246;27;20075;-80
2022/06/14 11:05:15;;;;;;;4.85;1.10;;;20.50;95.10;;;;;;5118500;27;20497;-80
2022/06/14 11:08:13;;;;;;;5.90;1.20;;;20.60;95.50;;;;;;5133777;27;20394;-80
2022/06/14 11:11:40;;;;;;;4.20;1.30;;;20.50;95.60;;;;;;5115618;27;20566;-80
2022/06/14 11:14:28;;;;;;;5.28;1.60;;;20.60;96.00;;;;;;5133092;27;20086;-82
2022/06/14 11:17:36;;;;;;;4.53;1.08;;;20.60;96.40;;;;;;5134327;27;20043;-83
2022/06/14 11:20:41;;;;;;;5.95;1.35;;;21.10;95.80;;;;;;5116098;27;20075;-81
2022/06/14 11:23:58;;;;;;;3.80;1.27;;;21.60;95.90;;;;;;5118559;27;20039;-81
2022/06/14 11:27:03;;;;;;;4.00;1.27;;;21.50;94.30;;;;;;5133364;27;20051;-81
2022/06/14 11:30:12;;;;;;;;;;;21.10;93.80;;;;;;5132993;27;20054;-79
2022/06/14 11:33:31;;;;;;;5.55;1.48;;;20.80;94.90;;;;;;5133397;27;19976;-79
2022/06/14 11:36:43;;;;;;;5.47;1.10;;;20.70;95.20;;;;;;5132237;27;20092;-82
2022/06/14 11:39:38;;;;;;;5.90;1.30;;;20.70;96.00;;;;;;5114271;27;20050;-81
2022/06/14 11:42:30;;;;;;;;;;;20.50;95.40;;;;;;5134366;27;20504;-79
2022/06/14 11:45:35;;;;;;;11.48;1.95;;;20.30;95.90;;;;;;5116514;27;20393;-81
2022/06/14 11:48:30;;;;;;;5.60;1.43;;;20.20;96.60;;;;;;5114068;27;20490;-82
2022/06/14 11:51:16;;;;;;;;;;;20.20;96.30;;;;;;5099650;27;20345;-80
2022/06/14 11:54:19;;;;;;;6.45;1.50;;;20.20;97.80;;;;;;5114457;27;19963;-80
2022/06/14 11:57:25;;;;;;;3.90;1.23;;;20.20;97.80;;;;;;5132784;27;20049;-79
2022/06/14 12:00:37;;;;;;;4.85;1.20;;;20.00;97.50;;;;;;5100355;27;20088;-81
2022/06/14 12:03:35;;;;;;;5.25;1.30;;;19.80;97.60;;;;;;5100145;27;20096;-80
2022/06/14 12:06:26;;;;;;;6.90;1.42;;;19.70;97.80;;;;;;5132639;27;20099;-80
2022/06/14 12:09:24;;;;;;;6.18;1.60;;;19.60;98.50;;;;;;5132170;27;20039;-81
2022/06/14 12:12:25;;;;;;;4.43;1.08;;;19.50;98.80;;;;;;5133179;27;20076;-81
2022/06/14 12:15:34;;;;;;;4.50;1.30;;;19.50;99.40;;;;;;5112635;27;20586;-81
2022/06/14 12:18:24;;;;;;;6.53;1.30;;;19.50;99.40;;;;;;5113629;27;20050;-81
2022/06/14 12:21:29;;;;;;;6.30;1.48;;;19.60;99.80;;;;;;5132592;27;20043;-82
2022/06/14 12:24:21;;;;;;;6.40;1.85;;;19.50;99.40;;;;;;5131947;27;20039;-81
2022/06/14 12:27:07;;;;;;;7.95;1.67;;;19.50;99.80;;;;;;5131610;27;20060;-82
2022/06/14 12:29:58;;;;;;;5.65;1.50;;;19.50;99.90;;;;;;5117415;27;20061;-80
2022/06/14 12:32:52;;;;;;;8.07;1.63;;;19.50;99.90;;;;;;5099689;27;20138;-80
2022/06/14 12:36:01;;;;;;;3.55;1.67;;;19.50;99.90;;;;;;5132456;27;20141;-81
2022/06/14 12:38:52;;;;;;;8.50;1.65;;;19.60;99.90;;;;;;5131060;27;20422;-81
2022/06/14 12:42:19;;;;;;;8.80;2.08;;;19.70;99.90;;;;;;5131713;27;20042;-81
2022/06/14 12:45:47;;;;;;;9.68;1.92;;;19.70;99.90;;;;;;5114018;27;20079;-80
2022/06/14 12:49:00;;;;;;;6.35;2.00;;;19.80;99.90;;;;;;5112502;27;20047;-80
2022/06/14 12:51:55;;;;;;;5.18;1.45;;;19.90;99.90;;;;;;5129241;27;20130;-81
2022/06/14 12:54:59;;;;;;;5.78;1.45;;;20.00;99.90;;;;;;5131410;27;20768;-81
2022/06/14 12:57:57;;;;;;;6.43;2.03;;;20.10;99.50;;;;;;5112981;27;20639;-80
2022/06/14 13:00:59;;;;;;;7.80;1.63;;;20.30;99.40;;;;;;5115479;27;20678;-82
2022/06/14 13:04:01;;;;;;;4.28;1.33;;;20.30;99.90;;;;;;5132297;27;20410;-80
2022/06/14 13:07:03;;;;;;;7.18;1.60;;;20.30;99.60;;;;;;5131502;27;20604;-79
2022/06/14 13:10:17;;;;;;;5.30;1.42;;;20.40;99.30;;;;;;5130630;27;20571;-79
2022/06/14 13:13:09;;;;;;;6.72;1.85;;;20.30;99.60;;;;;;5132507;27;20082;-80
2022/06/14 13:16:06;;;;;;;4.68;1.42;;;20.20;99.50;;;;;;5131077;27;20503;-80
2022/06/14 13:19:20;;;;;;;5.50;1.60;;;20.30;99.50;;;;;;5132113;27;20086;-81
2022/06/14 13:22:18;;;;;;;7.63;1.27;;;20.20;99.90;;;;;;5112953;27;20172;-80
2022/06/14 13:25:23;;;;;;;5.85;1.45;;;20.10;99.70;;;;;;5131338;27;20133;-82
2022/06/14 13:28:30;;;;;;;6.15;2.10;;;20.10;99.80;;;;;;5131159;27;20224;-82
2022/06/14 13:31:43;;;;;;;7.45;1.45;;;19.90;99.90;;;;;;5099193;28;20055;-80
2022/06/14 13:34:54;;;;;;;7.07;1.80;;;19.90;99.90;;;;;;5112047;28;20055;-80
2022/06/14 13:37:55;;;;;;;10.40;1.92;;;19.90;99.90;;;;;;5097732;28;20116;-80
2022/06/14 13:41:00;;;;;;;7.53;2.17;;;20.10;99.90;;;;;;5111990;28;20039;-81
2022/06/14 13:44:01;;;;;;;5.82;2.00;;;20.30;99.90;;;;;;5115624;28;20126;-82
2022/06/14 13:47:00;;;;;;;5.22;1.40;;;20.40;99.90;;;;;;5130473;28;20108;-82
2022/06/14 13:50:04;;;;;;;8.02;1.73;;;20.40;99.90;;;;;;5112740;28;20055;-81
2022/06/14 13:53:05;;;;;;;7.75;1.50;;;20.40;99.90;;;;;;5113100;28;20089;-81
2022/06/14 13:56:20;;;;;;;7.07;1.67;;;20.40;99.90;;;;;;5131377;28;20051;-80
2022/06/14 13:59:14;;;;;;;5.82;1.98;;;20.60;99.90;;;;;;5130653;28;20043;-80
2022/06/14 14:02:17;;;;;;;5.70;1.77;;;20.50;99.90;;;;;;5113362;27;20074;-81
2022/06/14 14:05:23;;;;;;;6.55;1.80;;;20.50;99.90;;;;;;5119750;27;20513;-80
2022/06/14 14:08:23;;;;;;;5.75;1.50;;;20.50;99.90;;;;;;5134996;27;20070;-80
2022/06/14 14:11:46;;;;;;;6.57;1.58;;;20.50;99.90;;;;;;5134392;27;20051;-81
2022/06/14 14:14:47;;;;;;;7.72;2.20;;;20.70;99.90;;;;;;5116194;27;20047;-80
2022/06/14 14:17:43;;;;;;;5.93;1.40;;;20.90;99.90;;;;;;5134465;27;20047;-81
2022/06/14 14:20:37;;;;;;;7.40;1.52;;;21.20;99.90;;;;;;5134104;27;20051;-80
2022/06/14 14:23:33;;;;;;;4.88;1.85;;;21.70;99.90;;;;;;5115779;27;20043;-81
2022/06/14 14:26:25;;;;;;;3.55;1.60;;;22.20;98.80;;;;;;5115549;27;20116;-81
2022/06/14 14:29:22;;;;;;;4.03;1.50;;;22.40;98.00;;;;;;5134110;27;20047;-80
2022/06/14 14:32:23;;;;;;;6.30;2.22;;;22.30;98.20;;;;;;5115712;27;20116;-80
2022/06/14 14:35:49;;;;;;;11.40;2.05;;;22.00;98.30;;;;;;5134572;27;20054;-80
2022/06/14 14:38:54;;;;;;;6.90;1.40;;;21.80;99.40;;;;;;5035290;28;20045;-81
2022/06/14 14:41:51;;;;;;;6.68;1.83;;;21.70;99.00;;;;;;5133700;27;20055;-81
2022/06/14 14:44:54;;;;;;;6.05;1.35;;;21.50;99.30;;;;;;5134100;27;20051;-80
2022/06/14 14:48:14;;;;;;;7.85;2.13;;;21.40;99.40;;;;;;5114979;27;20498;-81
2022/06/14 14:51:21;;;;;;;6.75;1.50;;;21.70;99.90;;;;;;5133886;27;20130;-82
2022/06/14 14:54:36;;;;;;;7.18;1.80;;;22.00;98.80;;;;;;5101789;27;20490;-83
2022/06/14 14:57:22;;;;;;;5.78;1.52;;;22.50;99.70;;;;;;5118336;27;20495;-80
2022/06/14 15:06:55;;;;;;;7.88;1.70;;;24.30;94.70;;;;;;5134776;27;20050;-82
2022/06/14 15:09:49;;;;;;;9.05;2.22;;;23.80;94.60;;;;;;5115566;27;20491;-82
2022/06/14 15:12:51;;;;;;;8.27;1.52;;;23.60;94.20;;;;;;5133589;27;20447;-82
2022/06/14 15:15:38;;;;;;;3.90;1.30;;;23.40;94.20;;;;;;5113211;27;20055;-81
2022/06/14 15:21:39;;;;;;;7.10;1.50;;;23.30;94.10;;;;;;5115819;27;20082;-81
2022/06/14 15:24:33;;;;;;;7.72;1.65;;;23.40;94.20;;;;;;5114936;27;20051;-80
2022/06/14 15:27:35;;;;;;;3.47;1.15;;;23.00;94.00;;;;;;5104249;27;20440;-81
2022/06/14 15:30:44;;;;;;;5.32;1.45;;;22.70;94.10;;;;;;5100922;27;20138;-81
2022/06/14 15:33:35;;;;;;;7.45;1.95;;;22.60;94.40;;;;;;5132379;27;20053;-81
2022/06/14 15:36:26;;;;;;;5.00;1.23;;;22.30;95.30;;;;;;5132774;27;20116;-80
2022/06/14 15:39:20;;;;;;;8.18;1.52;;;22.30;95.20;;;;;;5113898;27;20511;-81
2022/06/14 15:42:32;;;;;;;4.30;1.10;;;22.10;95.50;;;;;;5099262;27;20076;-81
2022/06/14 15:45:30;;;;;;;6.32;1.73;;;22.20;95.40;;;;;;5114959;27;20092;-81
2022/06/14 15:48:21;;;;;;;5.10;1.33;;;22.20;95.40;;;;;;5100240;27;20050;-81
2022/06/14 15:51:13;;;;;;;4.72;1.55;;;22.10;95.90;;;;;;5132631;27;20130;-81
2022/06/14 15:54:00;;;;;;;6.35;1.70;;;21.90;95.20;;;;;;5116582;27;20139;-80
2022/06/14 15:57:16;;;;;;;5.60;1.50;;;21.70;95.70;;;;;;5113710;27;20050;-79